EZY47RE EGPH-EGGW
Flight info
| Callsign | EZY47RE |
|---|---|
| Flight time | 1h 3m |
| Altitude | 33000 |
| Route | GOSAM P600 FENIK L612 NAVSO DCT AKOMU DCT VAMEB UL612 LISTO |
| Aircraft | A320/M-SDE2E3FGHIJ1RWXYZ/LB1 |
Departure
| Time | 2026-04-24 19:56 |
|---|---|
| Airport | Edinburgh Airport (EGPH) |
Arrival
| Time | 2026-04-24 20:59 |
|---|---|
| Airport | London Luton Airport (EGGW) |
| Time | Latitude | Longitude | Altitude | Speed | Heading |
|---|---|---|---|---|---|
| 2026-04-24 19:17 | 55.94848 | -3.35872 | 116 ft | 0 kts | 209° |
| 2026-04-24 19:46 | 55.94849 | -3.35872 | 117 ft | 1 kts | 210° |
| 2026-04-24 19:46 | 55.94870 | -3.35850 | 114 ft | 4 kts | 209° |
| 2026-04-24 19:47 | 55.94893 | -3.35827 | 114 ft | 4 kts | 208° |
| 2026-04-24 19:47 | 55.94907 | -3.35814 | 115 ft | 0 kts | 208° |
| 2026-04-24 19:49 | 55.94905 | -3.35823 | 117 ft | 0 kts | 231° |
| 2026-04-24 19:49 | 55.94907 | -3.35838 | 117 ft | 0 kts | 292° |
| 2026-04-24 19:50 | 55.94920 | -3.35854 | 117 ft | 3 kts | 327° |
| 2026-04-24 19:50 | 55.94996 | -3.35845 | 117 ft | 18 kts | 23° |
| 2026-04-24 19:51 | 55.95098 | -3.36026 | 113 ft | 10 kts | 286° |
| 2026-04-24 19:51 | 55.95118 | -3.36137 | 116 ft | 9 kts | 290° |
| 2026-04-24 19:52 | 55.95118 | -3.36329 | 113 ft | 7 kts | 238° |
| 2026-04-24 19:52 | 55.95086 | -3.36422 | 114 ft | 10 kts | 238° |
| 2026-04-24 19:52 | 55.95045 | -3.36545 | 114 ft | 16 kts | 239° |
| 2026-04-24 19:52 | 55.94971 | -3.36761 | 114 ft | 24 kts | 238° |
| 2026-04-24 19:53 | 55.94881 | -3.37029 | 116 ft | 27 kts | 239° |
| 2026-04-24 19:53 | 55.94781 | -3.37324 | 115 ft | 29 kts | 239° |
| 2026-04-24 19:53 | 55.94560 | -3.37977 | 116 ft | 30 kts | 238° |
| 2026-04-24 19:54 | 55.94452 | -3.38297 | 113 ft | 30 kts | 240° |
| 2026-04-24 19:54 | 55.94363 | -3.38554 | 116 ft | 22 kts | 239° |
| 2026-04-24 19:54 | 55.94310 | -3.38711 | 113 ft | 22 kts | 239° |
| 2026-04-24 19:54 | 55.94316 | -3.38900 | 116 ft | 16 kts | 321° |
| 2026-04-24 19:55 | 55.94379 | -3.38976 | 114 ft | 18 kts | 329° |
| 2026-04-24 19:55 | 55.94462 | -3.38828 | 114 ft | 32 kts | 59° |
| 2026-04-24 19:55 | 55.94735 | -3.38032 | 114 ft | 113 kts | 58° |
| 2026-04-24 19:55 | 55.95406 | -3.36055 | 630 ft | 148 kts | 57° |
| 2026-04-24 19:56 | 55.95771 | -3.34981 | 1162 ft | 152 kts | 58° |
| 2026-04-24 19:56 | 55.96496 | -3.33479 | 1712 ft | 171 kts | 42° |
| 2026-04-24 19:56 | 55.97442 | -3.31956 | 2151 ft | 196 kts | 41° |
| 2026-04-24 19:56 | 55.98522 | -3.30226 | 2690 ft | 221 kts | 41° |
| 2026-04-24 19:57 | 55.99802 | -3.28472 | 3268 ft | 245 kts | 23° |
| 2026-04-24 19:57 | 56.01516 | -3.28155 | 4030 ft | 257 kts | 345° |
| 2026-04-24 19:57 | 56.03017 | -3.29764 | 5006 ft | 261 kts | 309° |
| 2026-04-24 19:57 | 56.03737 | -3.32756 | 6054 ft | 266 kts | 275° |
| 2026-04-24 19:58 | 56.03563 | -3.36055 | 7106 ft | 270 kts | 258° |
| 2026-04-24 19:58 | 56.03012 | -3.39288 | 8144 ft | 275 kts | 252° |
| 2026-04-24 19:58 | 56.02354 | -3.42534 | 9133 ft | 280 kts | 251° |
| 2026-04-24 19:58 | 56.01700 | -3.45840 | 10093 ft | 284 kts | 253° |
| 2026-04-24 19:59 | 56.01085 | -3.49235 | 10739 ft | 302 kts | 255° |
| 2026-04-24 19:59 | 56.00473 | -3.52987 | 11358 ft | 316 kts | 256° |
| 2026-04-24 19:59 | 55.99893 | -3.56817 | 12218 ft | 322 kts | 257° |
| 2026-04-24 19:59 | 55.99329 | -3.60717 | 13099 ft | 326 kts | 257° |
| 2026-04-24 20:00 | 55.98768 | -3.64671 | 13943 ft | 331 kts | 257° |
| 2026-04-24 20:00 | 55.98204 | -3.68676 | 14760 ft | 335 kts | 257° |
| 2026-04-24 20:00 | 55.97631 | -3.72731 | 15556 ft | 339 kts | 256° |
| 2026-04-24 20:00 | 55.97043 | -3.76828 | 16326 ft | 343 kts | 256° |
| 2026-04-24 20:01 | 55.96445 | -3.80973 | 17071 ft | 347 kts | 256° |
| 2026-04-24 20:01 | 55.95839 | -3.85157 | 17808 ft | 350 kts | 256° |
| 2026-04-24 20:01 | 55.95224 | -3.89382 | 18528 ft | 354 kts | 256° |
| 2026-04-24 20:01 | 55.94599 | -3.93652 | 19218 ft | 357 kts | 256° |
| 2026-04-24 20:02 | 55.93902 | -3.97928 | 19888 ft | 362 kts | 249° |
| 2026-04-24 20:02 | 55.92705 | -4.01895 | 20510 ft | 367 kts | 234° |
| 2026-04-24 20:02 | 55.90952 | -4.05243 | 21121 ft | 373 kts | 220° |
| 2026-04-24 20:02 | 55.88824 | -4.07931 | 21730 ft | 377 kts | 215° |
| 2026-04-24 20:03 | 55.86645 | -4.10582 | 22325 ft | 381 kts | 215° |
| 2026-04-24 20:03 | 55.84448 | -4.13257 | 22883 ft | 385 kts | 216° |
| 2026-04-24 20:03 | 55.82255 | -4.15924 | 23427 ft | 389 kts | 216° |
| 2026-04-24 20:03 | 55.79987 | -4.18687 | 23976 ft | 392 kts | 216° |
| 2026-04-24 20:04 | 55.77746 | -4.21385 | 24502 ft | 396 kts | 212° |
| 2026-04-24 20:04 | 55.75242 | -4.23488 | 24983 ft | 401 kts | 199° |
| 2026-04-24 20:04 | 55.72505 | -4.24563 | 25467 ft | 406 kts | 186° |
| 2026-04-24 20:04 | 55.69668 | -4.24605 | 25948 ft | 410 kts | 175° |
| 2026-04-24 20:05 | 55.66858 | -4.23644 | 26418 ft | 414 kts | 163° |
| 2026-04-24 20:05 | 55.64152 | -4.21850 | 26885 ft | 417 kts | 154° |
| 2026-04-24 20:05 | 55.61612 | -4.19442 | 27706 ft | 406 kts | 150° |
| 2026-04-24 20:05 | 55.59174 | -4.17048 | 28681 ft | 398 kts | 150° |
| 2026-04-24 20:06 | 55.56760 | -4.14693 | 29298 ft | 396 kts | 151° |
| 2026-04-24 20:06 | 55.54341 | -4.12347 | 29791 ft | 398 kts | 151° |
| 2026-04-24 20:06 | 55.51909 | -4.09996 | 30236 ft | 400 kts | 151° |
| 2026-04-24 20:06 | 55.49459 | -4.07621 | 30651 ft | 403 kts | 151° |
| 2026-04-24 20:07 | 55.47786 | -4.05996 | 30757 ft | 410 kts | 151° |
| 2026-04-24 20:07 | 55.44420 | -4.02726 | 30921 ft | 424 kts | 151° |
| 2026-04-24 20:07 | 55.41805 | -4.00185 | 31051 ft | 434 kts | 151° |
| 2026-04-24 20:07 | 55.39133 | -3.97597 | 31190 ft | 442 kts | 151° |
| 2026-04-24 20:08 | 55.36420 | -3.94978 | 31436 ft | 448 kts | 151° |
| 2026-04-24 20:08 | 55.33674 | -3.92330 | 31736 ft | 452 kts | 151° |
| 2026-04-24 20:08 | 55.30913 | -3.89667 | 32091 ft | 454 kts | 151° |
| 2026-04-24 20:08 | 55.28149 | -3.87006 | 32534 ft | 453 kts | 151° |
| 2026-04-24 20:09 | 55.25385 | -3.84351 | 32956 ft | 453 kts | 152° |
| 2026-04-24 20:09 | 55.22615 | -3.81694 | 33209 ft | 454 kts | 152° |
| 2026-04-24 20:09 | 55.19855 | -3.79129 | 33255 ft | 442 kts | 153° |
| 2026-04-24 20:09 | 55.17154 | -3.76749 | 33249 ft | 427 kts | 154° |
| 2026-04-24 20:10 | 55.14502 | -3.74502 | 33252 ft | 421 kts | 155° |
| 2026-04-24 20:10 | 55.09234 | -3.70119 | 33259 ft | 419 kts | 155° |
| 2026-04-24 20:11 | 55.03991 | -3.65686 | 33263 ft | 419 kts | 154° |
| 2026-04-24 20:11 | 54.98762 | -3.61198 | 33254 ft | 419 kts | 154° |
| 2026-04-24 20:12 | 54.93535 | -3.56732 | 33250 ft | 418 kts | 154° |
| 2026-04-24 20:12 | 54.88304 | -3.52307 | 33248 ft | 418 kts | 154° |
| 2026-04-24 20:13 | 54.83071 | -3.47888 | 33249 ft | 418 kts | 154° |
| 2026-04-24 20:13 | 54.77836 | -3.43463 | 33243 ft | 418 kts | 154° |
| 2026-04-24 20:14 | 54.72597 | -3.39056 | 33239 ft | 419 kts | 155° |
| 2026-04-24 20:14 | 54.67347 | -3.34661 | 33238 ft | 419 kts | 155° |
| 2026-04-24 20:15 | 54.62140 | -3.30307 | 33233 ft | 418 kts | 155° |
| 2026-04-24 20:15 | 54.56893 | -3.25940 | 33232 ft | 419 kts | 155° |
| 2026-04-24 20:16 | 54.51648 | -3.21582 | 33234 ft | 419 kts | 155° |
| 2026-04-24 20:16 | 54.46403 | -3.17232 | 33233 ft | 419 kts | 155° |
| 2026-04-24 20:17 | 54.41149 | -3.12888 | 33230 ft | 420 kts | 155° |
| 2026-04-24 20:17 | 54.33253 | -3.06370 | 33233 ft | 420 kts | 155° |
| 2026-04-24 20:18 | 54.27986 | -3.02040 | 33235 ft | 420 kts | 155° |
| 2026-04-24 20:18 | 54.22711 | -2.97732 | 33238 ft | 420 kts | 155° |
| 2026-04-24 20:19 | 54.17446 | -2.93437 | 33242 ft | 419 kts | 155° |
| 2026-04-24 20:19 | 54.12120 | -2.89352 | 33245 ft | 419 kts | 157° |
| 2026-04-24 20:20 | 54.06738 | -2.85521 | 33251 ft | 419 kts | 158° |
| 2026-04-24 20:20 | 54.01353 | -2.81705 | 33255 ft | 419 kts | 158° |
| 2026-04-24 20:21 | 53.95981 | -2.77825 | 33258 ft | 419 kts | 158° |
| 2026-04-24 20:21 | 53.90618 | -2.73924 | 33262 ft | 420 kts | 158° |
| 2026-04-24 20:22 | 53.85254 | -2.70012 | 33265 ft | 420 kts | 157° |
| 2026-04-24 20:22 | 53.79927 | -2.66144 | 33266 ft | 419 kts | 158° |
| 2026-04-24 20:23 | 53.74563 | -2.62294 | 33264 ft | 419 kts | 158° |
| 2026-04-24 20:23 | 53.69190 | -2.58457 | 33259 ft | 419 kts | 158° |
| 2026-04-24 20:24 | 53.63813 | -2.54633 | 33259 ft | 419 kts | 158° |
| 2026-04-24 20:24 | 53.58437 | -2.50812 | 33263 ft | 420 kts | 158° |
| 2026-04-24 20:25 | 53.53060 | -2.46998 | 33263 ft | 419 kts | 158° |
| 2026-04-24 20:25 | 53.47675 | -2.43217 | 33265 ft | 419 kts | 158° |
| 2026-04-24 20:26 | 53.42291 | -2.39454 | 33266 ft | 419 kts | 158° |
| 2026-04-24 20:26 | 53.36913 | -2.35687 | 33267 ft | 419 kts | 158° |
| 2026-04-24 20:27 | 53.31540 | -2.31913 | 33272 ft | 419 kts | 158° |
| 2026-04-24 20:27 | 53.26163 | -2.28153 | 33269 ft | 418 kts | 158° |
| 2026-04-24 20:28 | 53.20826 | -2.24437 | 33266 ft | 418 kts | 159° |
| 2026-04-24 20:28 | 53.15465 | -2.20664 | 33268 ft | 419 kts | 155° |
| 2026-04-24 20:29 | 53.10598 | -2.15350 | 33262 ft | 420 kts | 144° |
| 2026-04-24 20:29 | 53.05888 | -2.09607 | 33249 ft | 420 kts | 145° |
| 2026-04-24 20:30 | 53.01171 | -2.03886 | 33246 ft | 420 kts | 145° |
| 2026-04-24 20:30 | 52.96450 | -1.98167 | 33253 ft | 420 kts | 145° |
| 2026-04-24 20:31 | 52.91728 | -1.92453 | 33265 ft | 424 kts | 145° |
| 2026-04-24 20:31 | 52.89311 | -1.89537 | 33266 ft | 437 kts | 146° |
| 2026-04-24 20:31 | 52.86813 | -1.86531 | 33266 ft | 449 kts | 146° |
| 2026-04-24 20:32 | 52.81698 | -1.80389 | 33265 ft | 457 kts | 146° |
| 2026-04-24 20:32 | 52.76544 | -1.74217 | 33274 ft | 458 kts | 146° |
| 2026-04-24 20:33 | 52.71091 | -1.68880 | 33276 ft | 455 kts | 155° |
| 2026-04-24 20:33 | 52.65466 | -1.64061 | 33276 ft | 456 kts | 155° |
| 2026-04-24 20:34 | 52.59850 | -1.59230 | 33275 ft | 455 kts | 155° |
| 2026-04-24 20:34 | 52.54230 | -1.54414 | 33271 ft | 455 kts | 155° |
| 2026-04-24 20:35 | 52.48609 | -1.49614 | 33269 ft | 455 kts | 155° |
| 2026-04-24 20:35 | 52.42988 | -1.44829 | 33270 ft | 455 kts | 155° |
| 2026-04-24 20:36 | 52.37360 | -1.40065 | 33268 ft | 455 kts | 155° |
| 2026-04-24 20:36 | 52.31728 | -1.35310 | 33268 ft | 455 kts | 155° |
| 2026-04-24 20:37 | 52.26135 | -1.30443 | 33264 ft | 456 kts | 153° |
| 2026-04-24 20:37 | 52.20678 | -1.25249 | 33129 ft | 443 kts | 152° |
| 2026-04-24 20:38 | 52.18068 | -1.22705 | 32386 ft | 433 kts | 152° |
| 2026-04-24 20:38 | 52.15502 | -1.20220 | 31436 ft | 427 kts | 153° |
| 2026-04-24 20:38 | 52.12915 | -1.17758 | 30115 ft | 432 kts | 153° |
| 2026-04-24 20:38 | 52.10313 | -1.15315 | 29018 ft | 431 kts | 153° |
| 2026-04-24 20:39 | 52.07765 | -1.12937 | 28036 ft | 425 kts | 154° |
| 2026-04-24 20:39 | 52.05181 | -1.10528 | 27062 ft | 419 kts | 154° |
| 2026-04-24 20:39 | 52.02733 | -1.08012 | 26113 ft | 416 kts | 142° |
| 2026-04-24 20:39 | 52.00923 | -1.04395 | 25242 ft | 415 kts | 118° |
| 2026-04-24 20:40 | 52.00111 | -0.99941 | 24315 ft | 411 kts | 94° |
| 2026-04-24 20:40 | 52.00211 | -0.95397 | 23328 ft | 408 kts | 84° |
| 2026-04-24 20:40 | 52.00516 | -0.90846 | 22421 ft | 403 kts | 82° |
| 2026-04-24 20:40 | 52.00889 | -0.86331 | 21597 ft | 395 kts | 82° |
| 2026-04-24 20:41 | 52.01267 | -0.81966 | 20819 ft | 386 kts | 82° |
| 2026-04-24 20:41 | 52.01634 | -0.77700 | 20048 ft | 377 kts | 80° |
| 2026-04-24 20:41 | 52.02414 | -0.73705 | 19313 ft | 367 kts | 62° |
| 2026-04-24 20:41 | 52.03284 | -0.71423 | 19156 ft | 351 kts | 52° |
| 2026-04-24 20:42 | 52.05399 | -0.67660 | 18467 ft | 335 kts | 45° |
| 2026-04-24 20:42 | 52.07010 | -0.64963 | 17821 ft | 329 kts | 46° |
| 2026-04-24 20:42 | 52.08084 | -0.63174 | 17383 ft | 325 kts | 46° |
| 2026-04-24 20:42 | 52.09658 | -0.60561 | 16712 ft | 322 kts | 45° |
| 2026-04-24 20:43 | 52.11215 | -0.57975 | 16050 ft | 318 kts | 45° |
| 2026-04-24 20:43 | 52.12755 | -0.55412 | 15398 ft | 315 kts | 45° |
| 2026-04-24 20:43 | 52.14280 | -0.52873 | 14745 ft | 312 kts | 45° |
| 2026-04-24 20:43 | 52.15789 | -0.50356 | 14099 ft | 309 kts | 45° |
| 2026-04-24 20:44 | 52.17288 | -0.47863 | 13443 ft | 306 kts | 45° |
| 2026-04-24 20:44 | 52.18747 | -0.45428 | 13144 ft | 291 kts | 45° |
| 2026-04-24 20:44 | 52.20116 | -0.43150 | 12950 ft | 274 kts | 42° |
| 2026-04-24 20:44 | 52.21659 | -0.41435 | 12535 ft | 266 kts | 23° |
| 2026-04-24 20:45 | 52.23421 | -0.40637 | 12050 ft | 262 kts | 4° |
| 2026-04-24 20:45 | 52.25235 | -0.40612 | 11513 ft | 260 kts | 1° |
| 2026-04-24 20:45 | 52.26980 | -0.39962 | 10987 ft | 258 kts | 26° |
| 2026-04-24 20:45 | 52.28379 | -0.38242 | 10471 ft | 256 kts | 51° |
| 2026-04-24 20:46 | 52.29207 | -0.35708 | 9937 ft | 254 kts | 76° |
| 2026-04-24 20:46 | 52.29295 | -0.32871 | 9401 ft | 251 kts | 101° |
| 2026-04-24 20:46 | 52.28655 | -0.30257 | 8833 ft | 249 kts | 126° |
| 2026-04-24 20:46 | 52.27422 | -0.28318 | 8282 ft | 246 kts | 149° |
| 2026-04-24 20:47 | 52.25865 | -0.27186 | 7699 ft | 245 kts | 159° |
| 2026-04-24 20:47 | 52.24296 | -0.26177 | 7465 ft | 243 kts | 158° |
| 2026-04-24 20:47 | 52.22716 | -0.25161 | 7340 ft | 245 kts | 158° |
| 2026-04-24 20:47 | 52.21131 | -0.24141 | 7216 ft | 245 kts | 158° |
| 2026-04-24 20:48 | 52.19551 | -0.23122 | 7098 ft | 244 kts | 158° |
| 2026-04-24 20:48 | 52.17973 | -0.22106 | 7005 ft | 243 kts | 158° |
| 2026-04-24 20:48 | 52.16398 | -0.21094 | 7012 ft | 244 kts | 158° |
| 2026-04-24 20:48 | 52.14820 | -0.20082 | 7011 ft | 243 kts | 158° |
| 2026-04-24 20:49 | 52.13241 | -0.19086 | 6979 ft | 244 kts | 162° |
| 2026-04-24 20:49 | 52.11582 | -0.18662 | 6690 ft | 242 kts | 180° |
| 2026-04-24 20:49 | 52.09938 | -0.19144 | 6331 ft | 241 kts | 200° |
| 2026-04-24 20:49 | 52.08478 | -0.20453 | 5986 ft | 240 kts | 218° |
| 2026-04-24 20:50 | 52.07310 | -0.22387 | 5634 ft | 240 kts | 228° |
| 2026-04-24 20:50 | 52.06209 | -0.24414 | 5287 ft | 239 kts | 227° |
| 2026-04-24 20:50 | 52.05106 | -0.26424 | 5000 ft | 235 kts | 227° |
| 2026-04-24 20:50 | 52.04018 | -0.28401 | 5009 ft | 237 kts | 227° |
| 2026-04-24 20:51 | 52.02913 | -0.30403 | 5011 ft | 238 kts | 227° |
| 2026-04-24 20:51 | 52.01805 | -0.32407 | 5011 ft | 239 kts | 227° |
| 2026-04-24 20:51 | 52.00699 | -0.34412 | 5012 ft | 239 kts | 228° |
| 2026-04-24 20:51 | 51.99764 | -0.36640 | 5012 ft | 239 kts | 242° |
| 2026-04-24 20:52 | 51.99178 | -0.39130 | 5012 ft | 241 kts | 253° |
| 2026-04-24 20:52 | 51.98704 | -0.41754 | 5013 ft | 243 kts | 252° |
| 2026-04-24 20:52 | 51.98156 | -0.44341 | 5012 ft | 242 kts | 243° |
| 2026-04-24 20:52 | 51.97284 | -0.46665 | 5012 ft | 241 kts | 230° |
| 2026-04-24 20:53 | 51.96268 | -0.48736 | 5008 ft | 227 kts | 230° |
| 2026-04-24 20:53 | 51.95321 | -0.50680 | 5009 ft | 215 kts | 230° |
| 2026-04-24 20:53 | 51.94423 | -0.52526 | 5014 ft | 202 kts | 230° |
| 2026-04-24 20:53 | 51.93595 | -0.54236 | 5022 ft | 184 kts | 230° |
| 2026-04-24 20:54 | 51.92829 | -0.55793 | 4954 ft | 171 kts | 225° |
| 2026-04-24 20:54 | 51.91896 | -0.56869 | 4828 ft | 162 kts | 205° |
| 2026-04-24 20:54 | 51.90874 | -0.57481 | 4702 ft | 153 kts | 187° |
| 2026-04-24 20:54 | 51.89836 | -0.57695 | 4519 ft | 149 kts | 182° |
| 2026-04-24 20:55 | 51.88800 | -0.57832 | 4271 ft | 149 kts | 181° |
| 2026-04-24 20:55 | 51.87776 | -0.57782 | 4027 ft | 146 kts | 165° |
| 2026-04-24 20:55 | 51.86859 | -0.57149 | 3787 ft | 142 kts | 147° |
| 2026-04-24 20:55 | 51.86052 | -0.56241 | 3438 ft | 143 kts | 131° |
| 2026-04-24 20:56 | 51.85717 | -0.54847 | 3188 ft | 132 kts | 89° |
| 2026-04-24 20:56 | 51.85605 | -0.53364 | 2736 ft | 137 kts | 108° |
| 2026-04-24 20:56 | 51.85373 | -0.51870 | 2387 ft | 134 kts | 100° |
| 2026-04-24 20:56 | 51.85306 | -0.50360 | 2029 ft | 135 kts | 89° |
| 2026-04-24 20:57 | 51.85426 | -0.48892 | 1833 ft | 131 kts | 80° |
| 2026-04-24 20:57 | 51.85642 | -0.47472 | 1606 ft | 129 kts | 78° |
| 2026-04-24 20:57 | 51.85884 | -0.46080 | 1506 ft | 129 kts | 78° |
| 2026-04-24 20:57 | 51.86123 | -0.44682 | 1370 ft | 129 kts | 78° |
| 2026-04-24 20:58 | 51.86354 | -0.43284 | 1187 ft | 128 kts | 78° |
| 2026-04-24 20:58 | 51.86595 | -0.41895 | 1006 ft | 128 kts | 76° |
| 2026-04-24 20:58 | 51.86833 | -0.40510 | 825 ft | 128 kts | 78° |
| 2026-04-24 20:58 | 51.87066 | -0.39124 | 666 ft | 128 kts | 76° |
| 2026-04-24 20:59 | 51.87308 | -0.37744 | 531 ft | 127 kts | 76° |
| 2026-04-24 20:59 | 51.87496 | -0.36651 | 526 ft | 67 kts | 75° |
| 2026-04-24 20:59 | 51.87587 | -0.36119 | 517 ft | 28 kts | 73° |
| 2026-04-24 20:59 | 51.87632 | -0.35943 | 516 ft | 13 kts | 45° |
| 2026-04-24 21:00 | 51.87708 | -0.35932 | 516 ft | 11 kts | 339° |
| 2026-04-24 21:00 | 51.87772 | -0.35991 | 516 ft | 10 kts | 326° |
| 2026-04-24 21:00 | 51.87783 | -0.36072 | 518 ft | 6 kts | 265° |
| 2026-04-24 21:00 | 51.87772 | -0.36150 | 518 ft | 11 kts | 255° |
| 2026-04-24 21:01 | 51.87742 | -0.36313 | 518 ft | 18 kts | 252° |
| 2026-04-24 21:01 | 51.87708 | -0.36510 | 520 ft | 19 kts | 257° |
| 2026-04-24 21:01 | 51.87668 | -0.36723 | 523 ft | 21 kts | 251° |
| 2026-04-24 21:01 | 51.87664 | -0.36933 | 524 ft | 19 kts | 317° |
| 2026-04-24 21:02 | 51.87803 | -0.37019 | 515 ft | 25 kts | 341° |
| 2026-04-24 21:02 | 51.87992 | -0.37118 | 509 ft | 31 kts | 341° |
| 2026-04-24 21:02 | 51.88152 | -0.37202 | 514 ft | 15 kts | 341° |
| 2026-04-24 21:02 | 51.88228 | -0.37254 | 517 ft | 11 kts | 313° |
| 2026-04-24 21:03 | 51.88214 | -0.37404 | 516 ft | 16 kts | 250° |
| 2026-04-24 21:03 | 51.88205 | -0.37589 | 517 ft | 18 kts | 252° |
| 2026-04-24 21:03 | 51.88149 | -0.37750 | 523 ft | 14 kts | 233° |
| 2026-04-24 21:03 | 51.88089 | -0.37844 | 523 ft | 9 kts | 198° |
| 2026-04-24 21:04 | 51.88061 | -0.37805 | 523 ft | 5 kts | 130° |
| 2026-04-24 21:04 | 51.88051 | -0.37785 | 523 ft | 1 kts | 128° |
| 2026-04-24 21:04 | 51.88050 | -0.37784 | 523 ft | 0 kts | 128° |